Time;durP1;ratioP1;P1;durP2;ratioP2;P2;SDS_P1;SDS_P2;PMS_P1;PMS_P2;Temp;Humidity;BMP_temperature;BMP_pressure;BME280_temperature;BME280_humidity;BME280_pressure;Samples;Min_cycle;Max_cycle;Signal;HPM_P1;HPM_P2
2023/01/02 00:00:29;;;;;;;22.83;8.03;;;;;;;8.21;100.00;100779.22;5003054;28;20483;-77
2023/01/02 00:02:54;;;;;;;19.47;7.00;;;;;;;8.17;100.00;100761.88;4987862;28;20033;-77
2023/01/02 00:05:19;;;;;;;25.57;8.50;;;;;;;8.24;100.00;100762.97;4987703;28;20034;-78
2023/01/02 00:07:45;;;;;;;18.50;7.47;;;;;;;8.28;100.00;100769.66;4986082;28;20038;-78
2023/01/02 00:10:10;;;;;;;15.63;7.47;;;;;;;8.33;100.00;100772.72;5005670;28;20478;-77
2023/01/02 00:12:36;;;;;;;20.17;6.90;;;;;;;8.31;100.00;100769.41;4985959;28;20491;-77
2023/01/02 00:15:01;;;;;;;18.87;6.23;;;;;;;8.33;100.00;100764.75;4971484;28;20030;-77
2023/01/02 00:17:27;;;;;;;12.65;7.45;;;;;;;8.32;100.00;100755.09;4986788;28;20112;-77
2023/01/02 00:19:53;;;;;;;28.83;12.25;;;;;;;8.23;100.00;100745.34;4989862;28;20040;-79
2023/01/02 00:22:18;;;;;;;19.88;6.30;;;;;;;8.24;100.00;100739.88;4975337;28;20654;-78
2023/01/02 00:24:43;;;;;;;19.03;7.00;;;;;;;8.26;100.00;100731.72;4974214;28;20544;-78
2023/01/02 00:27:09;;;;;;;22.37;6.90;;;;;;;8.25;100.00;100733.56;4974473;28;20044;-78
2023/01/02 00:29:34;;;;;;;17.17;7.13;;;;;;;8.23;100.00;100727.56;4992243;28;20102;-78
2023/01/02 00:31:59;;;;;;;20.57;7.87;;;;;;;8.22;100.00;100722.41;4992051;28;20369;-79
2023/01/02 00:34:25;;;;;;;18.43;6.97;;;;;;;8.15;100.00;100713.34;4990298;28;20030;-78
2023/01/02 00:36:51;;;;;;;19.58;7.03;;;;;;;8.19;100.00;100714.69;4976058;28;20065;-77
2023/01/02 00:39:16;;;;;;;20.87;7.73;;;;;;;8.18;100.00;100710.38;4976235;28;20092;-78
2023/01/02 00:41:42;;;;;;;17.07;7.70;;;;;;;8.19;100.00;100690.75;4974063;28;20100;-78
2023/01/02 00:44:07;;;;;;;18.87;7.67;;;;;;;8.19;100.00;100690.75;4992373;28;20300;-78
2023/01/02 00:46:33;;;;;;;18.13;7.27;;;;;;;8.15;100.00;100681.44;4990982;28;20269;-77
2023/01/02 00:48:58;;;;;;;21.23;7.20;;;;;;;8.11;100.00;100661.44;4976654;28;20364;-78
2023/01/02 00:51:23;;;;;;;17.37;6.90;;;;;;;8.00;100.00;100649.16;4992534;28;20042;-77
2023/01/02 00:53:49;;;;;;;18.83;8.07;;;;;;;7.99;100.00;100653.66;4992908;28;20033;-77
2023/01/02 00:56:14;;;;;;;25.20;8.63;;;;;;;7.98;100.00;100644.00;4992213;28;20060;-78
2023/01/02 00:58:39;;;;;;;20.47;7.33;;;;;;;8.06;100.00;100653.91;4974378;28;20522;-78
2023/01/02 01:01:05;;;;;;;17.30;7.03;;;;;;;8.08;100.00;100653.72;4992901;28;20580;-78
2023/01/02 01:03:30;;;;;;;19.10;7.60;;;;;;;8.11;100.00;100650.78;4975236;28;20152;-77
2023/01/02 01:05:56;;;;;;;13.73;6.57;;;;;;;7.98;100.00;100633.38;4991842;28;20041;-77
2023/01/02 01:08:21;;;;;;;18.53;8.27;;;;;;;8.06;100.00;100627.31;4992274;28;20092;-79
2023/01/02 01:10:47;;;;;;;16.83;8.17;;;;;;;8.15;100.00;100630.91;4975389;28;20269;-77
2023/01/02 01:13:12;;;;;;;24.58;7.20;;;;;;;8.15;100.00;100631.72;4976923;28;20049;-77
2023/01/02 01:15:37;;;;;;;17.27;6.27;;;;;;;8.18;100.00;100619.94;4973503;28;20121;-78
2023/01/02 01:18:03;;;;;;;14.27;6.07;;;;;;;8.21;100.00;100619.66;4990994;28;20399;-78
2023/01/02 01:20:28;;;;;;;14.90;6.53;;;;;;;8.23;100.00;100612.34;4990739;28;20104;-77
2023/01/02 01:22:53;;;;;;;14.27;6.90;;;;;;;8.18;100.00;100593.38;4993929;28;20025;-78
2023/01/02 01:25:19;;;;;;;23.20;7.30;;;;;;;8.23;100.00;100599.06;4974824;28;20065;-78
2023/01/02 01:27:45;;;;;;;12.77;5.97;;;;;;;8.23;100.00;100591.91;4990585;28;20046;-78
2023/01/02 01:30:10;;;;;;;13.17;6.07;;;;;;;8.31;100.00;100585.84;4973948;28;20551;-77
2023/01/02 01:32:36;;;;;;;13.38;5.45;;;;;;;8.34;100.00;100579.41;4987629;28;20038;-77
2023/01/02 01:35:01;;;;;;;14.63;5.60;;;;;;;8.39;100.00;100579.78;4990046;28;20045;-78
2023/01/02 01:37:27;;;;;;;10.10;5.07;;;;;;;8.35;100.00;100576.56;4972770;28;20121;-79
2023/01/02 01:39:52;;;;;;;16.50;4.87;;;;;;;8.42;100.00;100590.13;5007344;28;20479;-77
2023/01/02 01:42:18;;;;;;;10.97;5.33;;;;;;;8.44;100.00;100586.31;4988912;28;20438;-78
2023/01/02 01:44:47;;;;;;;17.67;5.25;;;;;;;8.37;100.00;100569.25;5005059;28;20506;-78
2023/01/02 01:47:19;;;;;;;18.25;6.15;;;;;;;8.18;100.00;100543.66;4989626;28;20087;-79
2023/01/02 01:49:45;;;;;;;17.60;5.88;;;;;;;8.25;100.00;100552.69;4971403;28;20069;-79
2023/01/02 01:52:13;;;;;;;;;;;;;;;8.30;100.00;100564.72;4973536;28;20056;-77
2023/01/02 01:54:51;;;;;;;13.13;4.78;;;;;;;8.31;100.00;100558.41;4972302;28;19913;-78
2023/01/02 01:57:22;;;;;;;14.80;5.85;;;;;;;8.25;100.00;100547.38;4988893;28;20069;-78
2023/01/02 01:59:48;;;;;;;12.30;5.00;;;;;;;8.21;100.00;100537.19;4987283;28;20247;-79
2023/01/02 02:02:13;;;;;;;10.82;4.78;;;;;;;8.21;100.00;100547.84;4990986;28;20032;-78
2023/01/02 02:04:42;;;;;;;13.98;5.63;;;;;;;8.21;100.00;100539.84;4989284;28;20038;-78
2023/01/02 02:07:07;;;;;;;13.82;6.43;;;;;;;8.20;100.00;100552.31;4975469;28;20039;-78
2023/01/02 02:09:58;;;;;;;19.00;6.17;;;;;;;8.23;100.00;100551.19;4979920;28;20041;-79
2023/01/02 02:12:24;;;;;;;11.27;4.63;;;;;;;8.25;100.00;100543.91;4989734;28;20048;-79
2023/01/02 02:14:49;;;;;;;13.70;5.20;;;;;;;8.15;100.00;100536.00;4974697;28;20026;-78
2023/01/02 02:17:51;;;;;;;15.07;5.53;;;;;;;8.17;100.00;100551.78;4975098;28;20414;-78
2023/01/02 02:20:23;;;;;;;13.63;4.97;;;;;;;8.19;100.00;100542.69;4981326;28;20083;-79
2023/01/02 02:23:26;;;;;;;10.43;4.97;;;;;;;8.22;100.00;100536.22;4975522;28;20046;-78
2023/01/02 02:26:29;;;;;;;15.10;5.82;;;;;;;8.14;100.00;100533.47;4991808;28;20041;-77
2023/01/02 02:29:07;;;;;;;18.85;6.00;;;;;;;8.22;100.00;100544.22;4953926;28;20542;-78
2023/01/02 02:31:49;;;;;;;16.98;6.47;;;;;;;8.11;100.00;100533.78;4990652;28;20030;-77
2023/01/02 02:34:24;;;;;;;21.00;6.95;;;;;;;8.08;100.00;100531.41;4991876;28;20124;-78
2023/01/02 02:37:00;;;;;;;22.88;7.22;;;;;;;8.11;100.00;100521.31;5010938;28;20495;-78
2023/01/02 02:39:47;;;;;;;17.30;6.95;;;;;;;8.10;100.00;100526.78;4990887;28;20046;-79
2023/01/02 02:42:33;;;;;;;19.63;7.63;;;;;;;8.11;100.00;100516.00;4991110;28;20030;-79
2023/01/02 02:45:10;;;;;;;14.80;6.72;;;;;;;8.07;100.00;100508.47;4977945;28;20038;-78
2023/01/02 02:47:47;;;;;;;21.73;8.27;;;;;;;8.18;100.00;100508.25;4977141;28;20048;-79
2023/01/02 02:50:26;;;;;;;14.68;7.38;;;;;;;8.10;100.00;100495.75;4993510;28;20038;-79
2023/01/02 02:53:08;;;;;;;14.13;7.03;;;;;;;8.16;100.00;100489.78;4992695;28;20037;-78
2023/01/02 02:55:54;;;;;;;14.40;7.68;;;;;;;8.19;100.00;100486.84;4974162;28;20030;-78
2023/01/02 02:58:22;;;;;;;15.85;7.15;;;;;;;8.16;100.00;100488.97;5008257;28;20053;-77
2023/01/02 03:00:48;;;;;;;14.40;7.95;;;;;;;8.21;100.00;100486.66;4988308;28;20034;-76
2023/01/02 03:03:21;;;;;;;12.23;6.72;;;;;;;8.29;100.00;100481.44;4990672;28;20026;-77
2023/01/02 03:06:17;;;;;;;15.15;8.27;;;;;;;8.30;100.00;100479.59;4989133;28;20046;-77
2023/01/02 03:09:21;;;;;;;14.90;7.13;;;;;;;8.31;100.00;100471.47;4991901;28;20038;-80
2023/01/02 03:11:50;;;;;;;18.63;8.38;;;;;;;8.41;100.00;100474.91;4975826;28;20042;-79
2023/01/02 03:14:53;;;;;;;14.80;7.30;;;;;;;8.34;100.00;100463.19;4994306;28;20596;-78
2023/01/02 03:17:31;;;;;;;17.33;9.40;;;;;;;8.40;100.00;100449.28;4976182;28;20040;-79
2023/01/02 03:20:01;;;;;;;14.52;8.45;;;;;;;8.40;100.00;100449.28;4964966;28;20045;-78
2023/01/02 03:22:32;;;;;;;18.40;8.90;;;;;;;8.34;100.00;100441.91;4989600;28;20034;-79
2023/01/02 03:24:58;;;;;;;17.27;9.73;;;;;;;8.37;100.00;100441.56;4986307;28;20026;-79
2023/01/02 03:27:28;;;;;;;18.30;9.65;;;;;;;8.38;100.00;100439.75;4977350;28;20301;-79
2023/01/02 03:30:03;;;;;;;18.98;9.75;;;;;;;8.42;100.00;100438.50;4975522;28;20091;-79
2023/01/02 03:32:42;;;;;;;24.55;11.98;;;;;;;8.35;100.00;100430.25;4974840;28;20120;-78
2023/01/02 03:35:14;;;;;;;17.50;10.75;;;;;;;8.37;100.00;100432.78;4986618;28;20038;-79
2023/01/02 03:37:43;;;;;;;20.42;11.18;;;;;;;8.44;100.00;100429.34;4992976;28;20443;-77
2023/01/02 03:40:16;;;;;;;23.83;11.60;;;;;;;8.47;100.00;100432.69;4977492;28;20502;-78
2023/01/02 03:42:49;;;;;;;32.03;13.95;;;;;;;8.46;100.00;100418.56;4991505;28;20125;-78
2023/01/02 03:45:18;;;;;;;24.35;13.00;;;;;;;8.32;100.00;100395.16;4973024;28;20030;-77
2023/01/02 03:48:01;;;;;;;27.98;12.32;;;;;;;8.54;100.00;100412.44;4987920;28;20644;-77
2023/01/02 03:50:32;;;;;;;25.10;12.23;;;;;;;8.49;100.00;100401.44;5005871;28;20033;-77
2023/01/02 03:52:59;;;;;;;32.47;13.82;;;;;;;8.50;100.00;100400.44;4994671;28;20037;-77
2023/01/02 03:55:27;;;;;;;26.35;12.80;;;;;;;8.51;100.00;100394.16;4972828;28;20018;-77
2023/01/02 03:58:01;;;;;;;25.98;13.90;;;;;;;8.56;100.00;100387.34;5006003;28;20088;-78
2023/01/02 04:00:42;;;;;;;25.38;13.95;;;;;;;8.60;100.00;100390.53;4987998;28;20072;-78
2023/01/02 04:03:25;;;;;;;28.25;13.63;;;;;;;8.66;100.00;100390.75;4983653;28;20045;-77
2023/01/02 04:05:58;;;;;;;24.73;12.45;;;;;;;8.64;100.00;100381.25;5003585;28;20045;-78
2023/01/02 04:08:37;;;;;;;23.05;12.32;;;;;;;8.75;100.00;100372.16;5005672;28;20045;-78
2023/01/02 04:11:06;;;;;;;31.08;13.23;;;;;;;8.74;100.00;100373.16;4994450;28;20450;-77
2023/01/02 04:13:38;;;;;;;27.70;13.40;;;;;;;8.76;100.00;100369.34;5005717;28;20033;-80
2023/01/02 04:16:07;;;;;;;26.42;12.90;;;;;;;8.80;100.00;100362.69;4992163;28;20041;-78
2023/01/02 04:18:38;;;;;;;27.77;11.70;;;;;;;8.88;100.00;100372.53;4974784;28;20044;-79
2023/01/02 04:21:13;;;;;;;28.17;12.05;;;;;;;8.93;100.00;100367.56;4991415;28;20031;-80
2023/01/02 04:24:17;;;;;;;29.23;13.13;;;;;;;8.92;100.00;100362.38;4991161;28;20210;-78
2023/01/02 04:27:21;;;;;;;22.38;10.85;;;;;;;8.96;100.00;100347.75;4966831;28;20548;-78
2023/01/02 04:29:46;;;;;;;23.70;12.20;;;;;;;8.97;100.00;100349.44;4970695;28;20109;-78
2023/01/02 04:32:24;;;;;;;22.57;12.60;;;;;;;9.02;100.00;100344.47;4977357;28;20105;-78
2023/01/02 04:34:51;;;;;;;23.58;12.60;;;;;;;8.93;100.00;100337.44;4974680;28;20037;-79
2023/01/02 04:37:32;;;;;;;25.83;12.18;;;;;;;8.98;100.00;100348.44;4993134;28;20025;-79
2023/01/02 04:40:02;;;;;;;23.48;10.95;;;;;;;8.98;100.00;100348.44;4997889;28;20436;-79
2023/01/02 04:42:27;;;;;;;19.17;10.15;;;;;;;9.00;100.00;100336.63;4991497;28;20093;-79
2023/01/02 04:44:53;;;;;;;26.92;11.20;;;;;;;9.01;100.00;100327.66;4990785;28;20181;-78
2023/01/02 04:47:18;;;;;;;20.73;10.97;;;;;;;9.06;100.00;100332.47;4993734;28;20034;-77
2023/01/02 04:49:44;;;;;;;19.95;11.02;;;;;;;9.08;100.00;100319.84;4991508;28;20038;-79
2023/01/02 04:52:09;;;;;;;22.43;9.47;;;;;;;9.08;100.00;100325.16;4992398;28;20038;-79
2023/01/02 04:54:35;;;;;;;26.23;11.00;;;;;;;9.13;100.00;100332.66;4989699;28;20033;-79
2023/01/02 04:57:00;;;;;;;26.77;12.00;;;;;;;9.14;100.00;100331.69;4973009;28;20046;-79
2023/01/02 04:59:25;;;;;;;16.47;10.00;;;;;;;9.14;100.00;100318.38;4989377;28;20072;-78
2023/01/02 05:01:51;;;;;;;17.37;8.87;;;;;;;9.00;100.00;100294.03;4991557;28;20049;-78
2023/01/02 05:04:16;;;;;;;29.07;11.13;;;;;;;9.13;100.00;100314.00;5009180;28;20044;-78
2023/01/02 05:06:41;;;;;;;23.13;10.93;;;;;;;9.09;100.00;100305.53;4989849;28;20041;-78
2023/01/02 05:09:07;;;;;;;21.50;8.77;;;;;;;9.03;100.00;100296.34;4991134;28;20080;-78
2023/01/02 05:11:32;;;;;;;18.13;9.97;;;;;;;9.10;100.00;100296.53;4971314;28;20049;-77
2023/01/02 05:13:57;;;;;;;20.30;9.47;;;;;;;9.08;100.00;100287.88;4987180;28;20038;-77
2023/01/02 05:16:23;;;;;;;14.10;8.27;;;;;;;9.25;100.00;100302.91;4971638;28;20026;-77
2023/01/02 05:18:48;;;;;;;17.80;8.83;;;;;;;9.42;100.00;100305.56;4970562;28;20041;-77
2023/01/02 05:24:00;;;;;;;17.85;10.05;;;;;;;9.62;100.00;100306.91;4991949;28;20037;-76
2023/01/02 05:26:26;;;;;;;19.80;8.02;;;;;;;9.66;100.00;100310.06;5005247;28;20050;-77
2023/01/02 05:28:53;;;;;;;19.88;8.80;;;;;;;9.76;100.00;100301.91;4987615;28;20368;-76
2023/01/02 05:31:18;;;;;;;;;;;;;;;9.78;100.00;100295.41;4987032;28;20045;-77
2023/01/02 05:33:44;;;;;;;14.25;7.93;;;;;;;9.76;100.00;100296.56;4986408;28;19917;-77
2023/01/02 05:36:09;;;;;;;20.07;8.50;;;;;;;9.73;100.00;100287.06;4988249;28;20483;-77
2023/01/02 05:38:36;;;;;;;18.70;8.27;;;;;;;9.77;100.00;100293.75;4986405;28;20747;-77
2023/01/02 05:41:05;;;;;;;;;;;;;;;9.76;100.00;100293.91;4989841;28;20677;-77
2023/01/02 05:43:32;;;;;;;19.25;9.80;;;;;;;9.73;100.00;100290.56;4987827;28;20475;-77
2023/01/02 05:45:57;;;;;;;15.13;8.73;;;;;;;9.76;100.00;100289.38;4989164;28;20034;-77
2023/01/02 05:48:23;;;;;;;29.00;10.55;;;;;;;9.62;100.00;100264.28;4989412;28;20033;-77
2023/01/02 05:50:49;;;;;;;22.05;9.18;;;;;;;9.77;100.00;100287.59;5005251;28;20384;-77
2023/01/02 05:53:16;;;;;;;24.27;9.13;;;;;;;9.76;100.00;100288.56;4973472;28;20036;-77
2023/01/02 05:55:41;;;;;;;17.17;9.30;;;;;;;9.70;100.00;100276.75;5006883;28;20112;-78
2023/01/02 05:58:06;;;;;;;22.40;8.57;;;;;;;9.71;100.00;100281.06;4989652;28;20125;-78
2023/01/02 06:00:32;;;;;;;19.63;9.07;;;;;;;9.71;100.00;100278.41;4969584;28;20096;-77
2023/01/02 06:02:57;;;;;;;20.53;9.33;;;;;;;9.70;100.00;100282.91;4989474;28;20038;-77
2023/01/02 06:05:22;;;;;;;15.97;8.37;;;;;;;9.70;100.00;100284.75;4986464;28;20056;-77
2023/01/02 06:07:47;;;;;;;26.80;8.90;;;;;;;9.63;100.00;100265.94;4972209;28;20037;-77
2023/01/02 06:10:13;;;;;;;23.50;9.23;;;;;;;9.73;100.00;100277.25;4973377;28;20116;-77
2023/01/02 06:12:38;;;;;;;20.43;7.60;;;;;;;9.81;100.00;100278.22;4988604;28;20065;-76
2023/01/02 06:15:04;;;;;;;19.13;7.40;;;;;;;9.84;100.00;100278.72;5007003;28;20497;-77
2023/01/02 06:17:29;;;;;;;20.27;8.77;;;;;;;9.85;100.00;100271.56;4989292;28;20037;-78
2023/01/02 06:19:54;;;;;;;20.37;8.47;;;;;;;9.84;100.00;100267.25;5007156;28;20057;-77
2023/01/02 06:22:20;;;;;;;19.20;9.30;;;;;;;9.90;100.00;100263.88;5004433;28;20442;-77
2023/01/02 06:24:45;;;;;;;21.40;10.07;;;;;;;9.87;100.00;100261.56;4975014;28;20510;-78
2023/01/02 06:27:10;;;;;;;14.67;8.40;;;;;;;9.93;100.00;100261.72;5009885;28;20061;-78
2023/01/02 06:29:36;;;;;;;17.13;10.17;;;;;;;9.94;100.00;100259.88;4993875;28;20049;-77
2023/01/02 06:32:01;;;;;;;19.70;9.80;;;;;;;9.80;100.00;100249.91;4993260;28;20029;-78
2023/01/02 06:34:26;;;;;;;19.70;10.20;;;;;;;9.90;100.00;100267.41;4977595;28;20092;-78
2023/01/02 06:36:52;;;;;;;20.70;10.87;;;;;;;9.87;100.00;100267.72;4992041;28;20034;-77
2023/01/02 06:39:17;;;;;;;19.27;10.80;;;;;;;9.92;100.00;100278.69;4994045;28;20041;-77
2023/01/02 06:41:42;;;;;;;19.97;10.47;;;;;;;9.89;100.00;100265.72;4977395;28;20030;-78
2023/01/02 06:44:12;;;;;;;26.10;11.73;;;;;;;9.91;100.00;100274.38;4995326;28;20048;-78
2023/01/02 06:46:37;;;;;;;21.52;10.98;;;;;;;9.89;100.00;100273.72;5008139;28;20495;-78
2023/01/02 06:49:03;;;;;;;29.73;11.90;;;;;;;9.87;100.00;100280.22;5011336;28;20076;-78
2023/01/02 06:51:28;;;;;;;21.13;9.90;;;;;;;9.93;100.00;100287.56;4994562;28;20046;-78
2023/01/02 06:53:54;;;;;;;22.27;10.50;;;;;;;9.92;100.00;100283.22;4994512;28;20061;-78
2023/01/02 06:56:20;;;;;;;19.40;9.32;;;;;;;9.89;100.00;100283.56;5011013;28;20037;-78
2023/01/02 06:58:45;;;;;;;27.23;11.27;;;;;;;9.93;100.00;100288.38;4991487;28;20483;-78
2023/01/02 07:01:19;;;;;;;19.03;9.30;;;;;;;9.93;100.00;100283.06;4977006;28;20042;-79
2023/01/02 07:03:45;;;;;;;21.30;8.90;;;;;;;9.95;100.00;100290.91;4993224;28;20930;-78
2023/01/02 07:06:16;;;;;;;21.40;8.90;;;;;;;9.98;100.00;100281.72;4973443;28;20061;-78
2023/01/02 07:08:42;;;;;;;25.83;9.70;;;;;;;9.94;100.00;100279.38;4991320;28;20411;-78
2023/01/02 07:11:20;;;;;;;21.05;9.00;;;;;;;9.96;100.00;100271.22;4995017;28;20038;-78
2023/01/02 07:13:46;;;;;;;18.45;9.45;;;;;;;9.99;100.00;100278.03;5008852;28;20059;-78
2023/01/02 07:16:14;;;;;;;21.77;9.65;;;;;;;9.96;100.00;100275.72;4993237;28;20045;-78
2023/01/02 07:18:40;;;;;;;20.45;9.80;;;;;;;9.99;100.00;100268.19;4991751;28;20516;-78
2023/01/02 07:21:07;;;;;;;17.88;9.75;;;;;;;10.02;100.00;100269.69;4978787;28;20033;-78
2023/01/02 07:23:33;;;;;;;18.15;8.48;;;;;;;10.03;100.00;100285.53;4994279;28;20044;-79
2023/01/02 07:26:00;;;;;;;21.45;9.95;;;;;;;10.06;100.00;100284.34;4992129;28;20033;-78
2023/01/02 07:28:27;;;;;;;18.02;10.07;;;;;;;10.09;100.00;100286.66;5010230;28;20066;-78
2023/01/02 07:30:58;;;;;;;20.48;10.57;;;;;;;10.07;100.00;100286.84;4991562;28;20446;-78
2023/01/02 07:33:23;;;;;;;27.38;10.43;;;;;;;10.08;100.00;100279.69;4993401;28;20040;-78
2023/01/02 07:35:48;;;;;;;24.93;10.40;;;;;;;10.04;100.00;100281.03;4992526;28;20101;-78
2023/01/02 07:38:14;;;;;;;28.17;9.80;;;;;;;10.07;100.00;100289.53;4989222;28;20288;-78
2023/01/02 07:40:39;;;;;;;17.17;9.87;;;;;;;10.17;100.00;100293.84;5008076;28;20096;-78
2023/01/02 07:43:05;;;;;;;19.27;11.20;;;;;;;10.14;100.00;100295.84;4993184;28;20046;-78
2023/01/02 07:45:32;;;;;;;25.77;10.63;;;;;;;10.12;100.00;100284.50;4977105;28;20032;-78
2023/01/02 07:47:58;;;;;;;18.13;10.75;;;;;;;10.14;100.00;100290.50;4977794;28;20041;-78
2023/01/02 07:50:23;;;;;;;20.60;10.43;;;;;;;10.17;100.00;100301.84;4992994;28;20034;-78
2023/01/02 07:52:49;;;;;;;23.33;11.20;;;;;;;10.12;100.00;100291.69;5012035;28;20045;-78
2023/01/02 07:55:14;;;;;;;18.93;11.60;;;;;;;10.13;100.00;100283.50;4994536;28;20129;-79
2023/01/02 07:57:39;;;;;;;24.93;12.33;;;;;;;10.15;100.00;100289.50;4995805;28;20843;-79
2023/01/02 08:00:05;;;;;;;30.50;11.73;;;;;;;10.14;100.00;100290.50;5011688;28;20331;-79
2023/01/02 08:02:37;;;;;;;24.83;12.73;;;;;;;10.18;100.00;100300.81;4996773;28;20460;-79
2023/01/02 08:05:03;;;;;;;24.60;13.40;;;;;;;10.23;100.00;100303.81;4994719;28;20050;-79
2023/01/02 08:07:28;;;;;;;23.90;13.02;;;;;;;10.21;100.00;100305.81;4994337;28;20095;-79
2023/01/02 08:09:53;;;;;;;27.73;14.40;;;;;;;10.22;100.00;100302.16;4993686;28;20498;-79
2023/01/02 08:12:19;;;;;;;24.40;12.80;;;;;;;10.42;100.00;100308.81;4995196;28;20588;-79
2023/01/02 08:14:44;;;;;;;27.43;14.33;;;;;;;10.26;100.00;100298.16;4992557;28;20139;-78
2023/01/02 08:17:09;;;;;;;27.57;14.30;;;;;;;10.24;100.00;100282.31;5011110;28;20061;-79
2023/01/02 08:19:35;;;;;;;25.17;14.43;;;;;;;10.25;100.00;100288.47;4993485;28;20041;-79
2023/01/02 08:22:00;;;;;;;25.47;13.70;;;;;;;10.34;100.00;100295.47;5008266;28;20384;-77
2023/01/02 08:24:25;;;;;;;26.77;13.37;;;;;;;10.30;100.00;100286.16;4992133;28;20038;-77
2023/01/02 08:26:51;;;;;;;22.50;12.83;;;;;;;10.27;100.00;100287.28;4975515;28;20046;-78
2023/01/02 08:29:16;;;;;;;24.77;14.13;;;;;;;10.25;100.00;100280.47;4992692;28;20093;-78
2023/01/02 08:31:41;;;;;;;24.47;12.50;;;;;;;10.29;100.00;100282.66;4992913;28;20491;-78
2023/01/02 08:34:07;;;;;;;22.83;13.27;;;;;;;10.33;100.00;100283.97;5010189;28;20033;-78
2023/01/02 08:36:32;;;;;;;24.53;13.57;;;;;;;10.29;100.00;100276.50;4977017;28;20083;-77
2023/01/02 08:38:57;;;;;;;20.50;12.93;;;;;;;10.37;100.00;100283.63;4991144;28;20084;-77
2023/01/02 08:41:31;;;;;;;21.90;13.03;;;;;;;10.29;100.00;100276.50;4977807;28;20041;-78
2023/01/02 08:43:56;;;;;;;23.65;13.52;;;;;;;10.38;100.00;100282.63;4996568;28;20108;-78
2023/01/02 08:46:21;;;;;;;25.03;13.27;;;;;;;10.43;100.00;100294.44;4979896;28;20068;-78
2023/01/02 08:48:47;;;;;;;24.73;14.10;;;;;;;10.45;100.00;100297.78;4976817;28;20034;-78
2023/01/02 08:51:12;;;;;;;31.13;13.27;;;;;;;10.43;100.00;100299.78;4979003;28;20037;-78
2023/01/02 08:53:37;;;;;;;23.13;13.13;;;;;;;10.46;100.00;100296.75;4979585;28;20044;-78
2023/01/02 08:56:36;;;;;;;22.67;13.63;;;;;;;10.50;100.00;100299.94;4993224;28;20029;-78
2023/01/02 08:59:05;;;;;;;26.45;13.50;;;;;;;10.53;100.00;100294.22;4934136;28;20053;-77
2023/01/02 09:01:43;;;;;;;23.45;13.13;;;;;;;10.55;100.00;100295.72;5068372;28;20371;-78
2023/01/02 09:04:09;;;;;;;20.70;12.57;;;;;;;10.60;100.00;100294.38;5050960;28;20027;-78
2023/01/02 09:06:35;;;;;;;23.10;12.10;;;;;;;10.63;100.00;100292.22;5048076;28;20935;-78
2023/01/02 09:09:02;;;;;;;20.50;11.70;;;;;;;10.65;100.00;100294.69;5068280;28;20444;-78
2023/01/02 09:11:33;;;;;;;21.67;12.43;;;;;;;10.72;100.00;100287.63;5068228;28;20036;-79
2023/01/02 09:14:00;;;;;;;25.90;11.80;;;;;;;10.59;100.00;100282.06;5051184;28;20033;-79
2023/01/02 09:16:26;;;;;;;24.10;12.27;;;;;;;10.66;100.00;100296.38;5047357;28;20025;-78
2023/01/02 09:18:51;;;;;;;23.73;11.23;;;;;;;10.68;100.00;100291.69;5066321;28;20100;-78
2023/01/02 09:21:17;;;;;;;24.42;11.80;;;;;;;10.69;100.00;100278.16;5068128;28;20024;-78
2023/01/02 09:23:42;;;;;;;22.93;12.27;;;;;;;10.68;100.00;100287.19;5066182;28;20502;-78
2023/01/02 09:26:10;;;;;;;21.33;11.50;;;;;;;10.71;100.00;100291.34;5066824;28;20263;-78
2023/01/02 09:28:36;;;;;;;18.33;10.77;;;;;;;10.76;100.00;100292.47;5066542;28;20425;-79
2023/01/02 09:31:09;;;;;;;21.30;11.38;;;;;;;10.70;100.00;100273.63;5066123;28;20040;-78
2023/01/02 09:33:36;;;;;;;21.48;10.77;;;;;;;10.76;100.00;100284.44;5067539;28;20040;-78
2023/01/02 09:36:04;;;;;;;23.90;10.23;;;;;;;10.82;100.00;100282.94;5065210;28;20037;-80
2023/01/02 09:38:29;;;;;;;17.85;10.05;;;;;;;10.82;100.00;100266.91;5066085;28;20395;-78
2023/01/02 09:40:56;;;;;;;16.55;10.02;;;;;;;10.76;100.00;100263.09;5048288;28;20023;-81
2023/01/02 09:43:30;;;;;;;22.55;9.82;;;;;;;10.83;100.00;100273.91;5065653;28;20173;-79
2023/01/02 09:45:59;;;;;;;18.45;10.32;;;;;;;10.82;100.00;100258.91;5049052;28;20093;-78
2023/01/02 09:48:30;;;;;;;14.25;9.20;;;;;;;10.86;100.00;100267.38;5046503;28;20033;-79
2023/01/02 09:50:56;;;;;;;17.67;9.38;;;;;;;10.96;100.00;100257.31;5058450;28;20035;-79
2023/01/02 09:53:21;;;;;;;20.35;10.40;;;;;;;10.93;100.00;100269.19;5066588;28;20016;-78
2023/01/02 09:56:03;;;;;;;15.37;9.60;;;;;;;10.95;100.00;100272.47;5048104;28;20032;-78
2023/01/02 09:58:37;;;;;;;12.73;8.02;;;;;;;10.97;100.00;100270.47;5065203;28;20052;-78
2023/01/02 10:01:05;;;;;;;13.73;8.52;;;;;;;10.90;100.00;100274.84;5038802;28;20029;-78
2023/01/02 10:03:52;;;;;;;18.55;9.80;;;;;;;10.84;100.00;100259.56;5046743;28;20036;-79
2023/01/02 10:06:43;;;;;;;18.25;8.77;;;;;;;10.94;100.00;100259.31;5045933;28;20043;-78
2023/01/02 10:09:29;;;;;;;16.40;9.40;;;;;;;10.99;100.00;100268.47;5056308;28;20031;-78
2023/01/02 10:12:02;;;;;;;10.48;7.30;;;;;;;10.98;100.00;100266.81;5039096;28;20031;-78
2023/01/02 10:14:36;;;;;;;16.23;9.52;;;;;;;10.99;100.00;100270.31;5048807;28;20032;-78
2023/01/02 10:17:04;;;;;;;14.02;8.55;;;;;;;11.06;100.00;100265.09;5049215;28;20091;-78
2023/01/02 10:19:40;;;;;;;18.40;7.80;;;;;;;11.03;100.00;100257.41;5049171;28;20061;-78
2023/01/02 10:22:10;;;;;;;10.80;7.45;;;;;;;11.05;100.00;100261.59;5026781;28;20049;-78
2023/01/02 10:24:53;;;;;;;10.13;6.88;;;;;;;11.04;100.00;100253.75;5029283;28;20059;-78
2023/01/02 10:27:24;;;;;;;12.82;7.35;;;;;;;11.02;100.00;100240.56;5031664;28;20533;-78
2023/01/02 10:30:05;;;;;;;14.05;7.13;;;;;;;11.10;100.00;100253.06;5048165;28;20168;-77
2023/01/02 10:32:32;;;;;;;12.35;7.00;;;;;;;11.04;100.00;100253.75;5031498;28;20036;-78
2023/01/02 10:34:58;;;;;;;16.85;7.10;;;;;;;11.10;100.00;100264.56;5047693;28;20032;-77
2023/01/02 10:37:25;;;;;;;19.25;8.57;;;;;;;11.09;100.00;100267.41;5028266;28;20100;-77
2023/01/02 10:39:51;;;;;;;12.23;7.43;;;;;;;11.11;100.00;100258.19;5047572;28;21532;-77
2023/01/02 10:42:16;;;;;;;8.95;6.32;;;;;;;11.19;100.00;100241.25;5048083;28;20036;-78
2023/01/02 10:44:44;;;;;;;12.37;6.20;;;;;;;11.23;100.00;100241.75;5031881;28;20140;-78
2023/01/02 10:47:12;;;;;;;8.15;6.05;;;;;;;11.23;100.00;100252.44;5047795;28;20029;-79
2023/01/02 10:49:39;;;;;;;8.50;5.10;;;;;;;11.23;100.00;100263.97;5048482;28;20025;-78
2023/01/02 10:52:12;;;;;;;9.38;6.22;;;;;;;11.22;100.00;100275.66;5048842;28;20838;-78
2023/01/02 10:54:53;;;;;;;10.43;5.85;;;;;;;11.11;100.00;100281.41;5048448;28;20032;-78
2023/01/02 10:57:37;;;;;;;17.25;5.85;;;;;;;10.99;100.00;100287.16;5049856;28;20033;-78
2023/01/02 11:00:04;;;;;;;8.73;3.83;;;;;;;10.82;100.00;100295.47;5050607;28;20021;-78
2023/01/02 11:02:36;;;;;;;5.07;3.88;;;;;;;10.67;100.00;100290.00;5048791;28;20041;-78
2023/01/02 11:05:04;;;;;;;5.68;3.67;;;;;;;10.46;100.00;100287.94;5052550;28;20037;-77
2023/01/02 11:07:36;;;;;;;10.63;5.30;;;;;;;10.34;100.00;100300.81;5049132;28;20049;-77
2023/01/02 11:10:03;;;;;;;6.97;4.40;;;;;;;10.28;100.00;100314.81;5032197;28;20090;-78
2023/01/02 11:12:28;;;;;;;7.63;3.50;;;;;;;10.10;100.00;100315.84;5031780;28;20481;-78
2023/01/02 11:15:11;;;;;;;5.83;2.80;;;;;;;10.10;100.00;100334.53;5048649;28;20131;-78
2023/01/02 11:17:41;;;;;;;5.25;1.70;;;;;;;10.03;100.00;100341.53;5048964;28;20033;-78
2023/01/02 11:20:23;;;;;;;4.90;2.22;;;;;;;9.94;100.00;100345.22;5050294;28;20013;-78
2023/01/02 11:22:49;;;;;;;1.13;0.93;;;;;;;9.89;100.00;100345.72;5033364;28;20100;-78
2023/01/02 11:25:21;;;;;;;2.00;1.23;;;;;;;9.89;100.00;100352.88;5028587;28;20057;-78